Terminal Aerodrome Forecast
Issued by NWS

Home | Current Version | Previous Version | Text Only | Print | Product List | Glossary On
Versions: 1 2 3 4 5 6 7 8 9 10 11 12 13 14 15 16
415
FTUS44 KLZK 230529
TAFLIT
TAF
KLIT 230529Z 2306/2406 31018G25KT P6SM SCT025 OVC050
      TEMPO 2306/2309 BKN025
     FM230900 32012G22KT P6SM BKN025 OVC050
     FM231500 32008G15KT P6SM SCT100 BKN250
     FM232200 VRB03KT P6SM BKN250=

USA.gov is the U.S. government's official web portal to all federal, state and local government web resources and services.